Pagina principale
METAR-TAF:

METAR-TAF

Aeroporti :

Aeroporto Internazionale di Calcutta

Calcutta, India

latitudine: 22-39N, longitudine: 088-27E, altezza: 4 m

Osservazione

Il bollettino è stato emesso 28 minuti fa, alle 19:00 UTC
Vento 4 kt da est/nord-est
Temperature 28°C
Umidità 94%
Pressione 998 hPa
Visibilità: 3200 m
Poco nuvoloso ad un'altezza di 2000 ft
Nubi sparse ad un'altezza di 10000 ft
foschia

METAR: VECC 171900Z 06004KT 3200 HZ FEW020 SCT100 28/27 Q0998 NOSIG

Ora: 00:58 (19:28 UTC)

Previsione

Il bollettino è stato emesso 5 ore e 28 minuti fa, alle 14:00 UTC
Previsione valida dal 17 alle 15 UTC al 17 alle 24 UTC
Vento 7 kt da est/sud-est
Visibilità: 3500 m
Nubi sparse ad un'altezza di 1800 ft
Nubi sparse ad un'altezza di 10000 ft
pioggia debole, foschia
Evoluzione graduale
dal 17 alle 21 UTC al 17 alle 23 UTC
Visibilità: 2600 m
pioggia debole, foschia

TAF: VECC 171400Z 1715/1724 11007KT 3500 -RA HZ SCT018 SCT100 BECMG 1721/1723 2600 -RA HZ

Osservazioni e previsioni meteorologiche di più di 4000 aeroporti (messaggi METAR e TAF).

Le stazioni disponibili sono rappresentate dai dischi gialli e rossi sulla carta.

Puntare il mouse per vedere il nome della stazione.

Clicca sopra per visualizzare le osservazioni e previsioni meteorologiche.

Per cambiare la mappa : fare clic sui pulsanti verdi con una croce nera per ingrandire, il pulsante verde con un trattino per diminuire, o sulla freccia verde per le mappe adiacenti.


METAR-TAF: